Time;durP1;ratioP1;P1;durP2;ratioP2;P2;SDS_P1;SDS_P2;PMS_P1;PMS_P2;Temp;Humidity;BMP_temperature;BMP_pressure;BME280_temperature;BME280_humidity;BME280_pressure;Samples;Min_cycle;Max_cycle;Signal;HPM_P1;HPM_P2
2022/08/01 00:02:03;;;;;;;7.18;6.32;;;19.70;99.90;;;;;;5008186;28;20033;-79
2022/08/01 00:04:29;;;;;;;10.52;6.43;;;19.70;99.90;;;;;;5025161;28;20033;-78
2022/08/01 00:06:54;;;;;;;5.93;4.70;;;19.70;99.90;;;;;;5009322;28;20041;-79
2022/08/01 00:09:20;;;;;;;10.05;6.35;;;19.60;99.90;;;;;;5006812;28;20033;-79
2022/08/01 00:11:45;;;;;;;4.90;4.50;;;19.60;99.90;;;;;;5004711;28;20064;-79
2022/08/01 00:14:11;;;;;;;6.35;5.75;;;19.70;99.90;;;;;;4999125;28;20041;-79
2022/08/01 00:16:37;;;;;;;7.07;4.80;;;19.60;99.90;;;;;;4983520;28;20038;-79
2022/08/01 00:19:02;;;;;;;9.30;6.03;;;19.60;99.90;;;;;;4979202;28;20026;-79
2022/08/01 00:21:28;;;;;;;7.72;6.60;;;19.70;99.90;;;;;;5021332;28;20086;-79
2022/08/01 00:23:53;;;;;;;7.40;5.53;;;19.60;99.90;;;;;;5008829;28;20512;-79
2022/08/01 00:26:19;;;;;;;11.65;7.68;;;19.60;99.90;;;;;;4983698;28;20481;-79
2022/08/01 00:28:45;;;;;;;14.25;9.45;;;19.50;99.90;;;;;;5004758;28;20172;-80
2022/08/01 00:31:10;;;;;;;7.22;5.30;;;19.50;99.90;;;;;;4990035;28;20089;-80
2022/08/01 00:33:36;;;;;;;6.63;5.30;;;19.50;99.90;;;;;;4973757;28;20037;-77
2022/08/01 00:36:01;;;;;;;8.98;6.65;;;19.60;99.90;;;;;;4994982;28;20030;-78
2022/08/01 00:38:27;;;;;;;9.50;7.68;;;19.50;99.90;;;;;;4989881;28;20085;-77
2022/08/01 00:40:55;;;;;;;10.07;8.52;;;19.50;99.90;;;;;;4994723;28;20033;-78
2022/08/01 00:43:20;;;;;;;13.45;9.13;;;19.60;99.90;;;;;;5007401;28;20112;-77
2022/08/01 00:45:46;;;;;;;5.03;4.53;;;19.50;99.90;;;;;;5006299;28;20160;-77
2022/08/01 00:48:12;;;;;;;11.18;9.63;;;19.50;99.90;;;;;;4999540;28;20068;-77
2022/08/01 00:50:37;;;;;;;12.60;9.93;;;19.50;99.90;;;;;;4980976;28;20029;-77
2022/08/01 00:53:03;;;;;;;11.10;6.93;;;19.50;99.90;;;;;;4978343;28;20024;-77
2022/08/01 00:55:29;;;;;;;17.30;11.50;;;19.50;99.90;;;;;;4986704;28;20115;-77
2022/08/01 00:57:54;;;;;;;11.48;9.77;;;19.50;99.90;;;;;;4988526;28;20029;-77
2022/08/01 01:00:20;;;;;;;10.40;8.32;;;19.40;99.90;;;;;;4982290;28;20078;-78
2022/08/01 01:02:45;;;;;;;12.07;9.48;;;19.40;99.90;;;;;;4996427;28;20046;-77
2022/08/01 01:05:11;;;;;;;11.10;7.65;;;19.40;99.90;;;;;;4961420;28;20026;-77
2022/08/01 01:07:54;;;;;;;15.88;11.00;;;19.50;99.90;;;;;;5007439;28;20040;-77
2022/08/01 01:10:29;;;;;;;15.40;11.05;;;19.50;99.90;;;;;;4980096;28;20042;-77
2022/08/01 01:13:12;;;;;;;11.55;10.35;;;19.40;99.90;;;;;;4973153;28;20494;-77
2022/08/01 01:15:47;;;;;;;10.88;9.25;;;19.40;99.90;;;;;;5001023;28;20022;-77
2022/08/01 01:18:20;;;;;;;9.63;8.13;;;19.40;99.90;;;;;;4979912;28;20104;-77
2022/08/01 01:21:08;;;;;;;10.93;7.75;;;19.50;99.90;;;;;;4992148;28;20609;-77
2022/08/01 01:23:55;;;;;;;13.88;9.32;;;19.40;99.90;;;;;;4999310;28;20034;-78
2022/08/01 01:26:26;;;;;;;10.35;6.82;;;19.50;99.90;;;;;;4998458;28;20553;-78
2022/08/01 01:28:52;;;;;;;7.82;5.63;;;19.50;99.90;;;;;;4999638;28;20030;-78
2022/08/01 01:31:17;;;;;;;16.08;11.23;;;19.50;99.90;;;;;;5004254;28;20048;-78
2022/08/01 01:33:43;;;;;;;14.80;9.07;;;19.40;99.90;;;;;;5009994;28;20025;-78
2022/08/01 01:36:10;;;;;;;11.60;8.05;;;19.50;99.90;;;;;;4984323;28;20110;-78
2022/08/01 01:38:42;;;;;;;11.25;7.80;;;19.40;99.90;;;;;;5023376;28;20469;-78
2022/08/01 01:41:10;;;;;;;13.02;7.82;;;19.40;99.90;;;;;;4998553;28;20125;-78
2022/08/01 01:43:35;;;;;;;13.35;9.80;;;19.40;99.90;;;;;;4992551;28;20050;-78
2022/08/01 01:46:02;;;;;;;12.85;9.82;;;19.40;99.90;;;;;;4981390;28;20044;-78
2022/08/01 01:48:27;;;;;;;10.45;7.13;;;19.50;99.90;;;;;;4994417;28;20485;-78
2022/08/01 01:50:53;;;;;;;14.98;10.43;;;19.40;99.90;;;;;;4989573;28;20044;-78
2022/08/01 01:53:20;;;;;;;15.25;11.13;;;19.40;99.90;;;;;;4992012;28;20046;-78
2022/08/01 01:55:47;;;;;;;10.95;7.38;;;19.40;99.90;;;;;;4983183;28;20040;-78
2022/08/01 01:58:13;;;;;;;12.40;8.93;;;19.40;99.90;;;;;;5000622;28;20576;-78
2022/08/01 02:00:39;;;;;;;8.02;7.22;;;19.40;99.90;;;;;;4992636;28;20099;-78
2022/08/01 02:03:05;;;;;;;12.90;10.00;;;19.40;99.90;;;;;;4993822;28;20157;-78
2022/08/01 02:05:34;;;;;;;13.73;9.02;;;19.40;99.90;;;;;;5006345;28;20050;-78
2022/08/01 02:07:59;;;;;;;17.63;12.93;;;19.40;99.90;;;;;;5022810;28;20025;-78
2022/08/01 02:10:25;;;;;;;10.32;9.05;;;19.40;99.90;;;;;;5026568;28;20512;-78
2022/08/01 02:12:50;;;;;;;17.85;11.13;;;19.40;99.90;;;;;;4994189;28;20097;-78
2022/08/01 02:15:16;;;;;;;13.25;9.88;;;19.40;99.90;;;;;;4983649;28;20037;-78
2022/08/01 02:17:45;;;;;;;19.30;11.57;;;19.40;99.90;;;;;;4969418;28;20030;-78
2022/08/01 02:20:11;;;;;;;13.55;9.10;;;19.40;99.90;;;;;;4971765;28;20461;-77
2022/08/01 02:22:48;;;;;;;16.95;9.65;;;19.40;99.90;;;;;;4957564;28;20030;-78
2022/08/01 02:25:26;;;;;;;16.40;11.48;;;19.40;99.90;;;;;;4961901;28;20101;-77
2022/08/01 02:27:57;;;;;;;15.13;11.00;;;19.40;99.90;;;;;;5003559;28;20034;-77
2022/08/01 02:30:23;;;;;;;17.70;12.55;;;19.50;99.90;;;;;;5022151;28;20707;-78
2022/08/01 02:32:57;;;;;;;19.52;13.82;;;19.50;99.90;;;;;;4985437;28;20029;-77
2022/08/01 02:35:25;;;;;;;13.98;9.23;;;19.50;99.90;;;;;;4990661;28;20073;-77
2022/08/01 02:37:50;;;;;;;13.23;10.00;;;19.50;99.90;;;;;;5009017;28;20034;-79
2022/08/01 02:40:17;;;;;;;12.15;9.02;;;19.50;99.90;;;;;;4962474;28;20176;-79
2022/08/01 02:42:44;;;;;;;19.75;14.68;;;19.40;99.90;;;;;;4982758;28;20033;-79
2022/08/01 02:45:10;;;;;;;13.95;11.05;;;19.40;99.90;;;;;;4993499;28;20026;-80
2022/08/01 02:47:35;;;;;;;16.08;11.40;;;19.30;99.90;;;;;;4963848;28;20038;-80
2022/08/01 02:50:01;;;;;;;13.95;9.95;;;19.30;99.90;;;;;;4982219;28;20441;-79
2022/08/01 02:52:26;;;;;;;20.38;12.73;;;19.30;99.90;;;;;;4979643;28;20557;-78
2022/08/01 02:54:54;;;;;;;16.05;12.07;;;19.30;99.90;;;;;;5009312;28;20113;-78
2022/08/01 02:57:20;;;;;;;13.82;10.43;;;19.40;99.90;;;;;;4978931;28;20309;-77
2022/08/01 02:59:45;;;;;;;15.80;12.73;;;19.30;99.90;;;;;;5005780;28;20033;-77
2022/08/01 03:02:11;;;;;;;18.63;12.80;;;19.20;99.90;;;;;;4983881;28;20495;-77
2022/08/01 03:04:38;;;;;;;21.08;11.90;;;19.40;99.90;;;;;;4959147;28;20607;-78
2022/08/01 03:07:05;;;;;;;19.85;13.93;;;19.40;99.90;;;;;;4996313;28;20037;-78
2022/08/01 03:09:32;;;;;;;15.15;12.27;;;19.30;99.90;;;;;;4966681;28;20045;-77
2022/08/01 03:12:00;;;;;;;16.92;12.10;;;19.40;99.90;;;;;;4993646;28;20038;-77
2022/08/01 03:14:25;;;;;;;16.10;12.93;;;19.30;99.90;;;;;;4998455;28;20126;-78
2022/08/01 03:16:51;;;;;;;25.50;17.85;;;19.30;99.90;;;;;;5003554;28;20490;-77
2022/08/01 03:19:16;;;;;;;16.88;12.52;;;19.30;99.90;;;;;;5003176;28;20152;-78
2022/08/01 03:21:42;;;;;;;19.63;11.77;;;19.30;99.90;;;;;;4960232;28;20505;-77
2022/08/01 03:24:08;;;;;;;23.15;15.13;;;19.30;99.90;;;;;;4979494;28;20405;-77
2022/08/01 03:26:34;;;;;;;24.98;16.27;;;19.30;99.90;;;;;;5007128;28;20149;-77
2022/08/01 03:29:06;;;;;;;21.65;15.20;;;19.20;99.90;;;;;;4983052;28;20684;-77
2022/08/01 03:31:32;;;;;;;13.10;10.80;;;19.20;99.90;;;;;;4972255;28;20474;-77
2022/08/01 03:33:58;;;;;;;25.67;18.33;;;19.30;99.90;;;;;;4991014;28;20034;-78
2022/08/01 03:36:26;;;;;;;22.67;17.25;;;19.30;99.90;;;;;;4963978;28;20036;-78
2022/08/01 03:38:52;;;;;;;30.92;19.95;;;19.20;99.90;;;;;;4984513;28;20034;-77
2022/08/01 03:41:20;;;;;;;33.13;23.40;;;19.20;99.90;;;;;;4985901;28;20041;-78
2022/08/01 03:43:54;;;;;;;38.65;24.88;;;19.10;99.90;;;;;;5007148;28;20109;-78
2022/08/01 03:46:22;;;;;;;35.83;25.65;;;19.00;99.90;;;;;;4988713;28;20064;-78
2022/08/01 03:48:48;;;;;;;38.20;25.77;;;19.00;99.90;;;;;;5009218;28;20034;-78
2022/08/01 03:51:14;;;;;;;29.00;19.55;;;19.00;99.90;;;;;;4964401;28;20069;-78
2022/08/01 03:53:40;;;;;;;20.40;17.38;;;19.00;99.90;;;;;;4994614;28;20045;-78
2022/08/01 03:56:08;;;;;;;26.23;17.88;;;19.10;99.90;;;;;;4996523;28;20029;-78
2022/08/01 03:58:33;;;;;;;24.45;18.95;;;19.10;99.90;;;;;;4985548;28;20034;-77
2022/08/01 04:00:59;;;;;;;36.60;23.90;;;19.10;99.90;;;;;;4995127;28;20101;-78
2022/08/01 04:03:25;;;;;;;33.92;24.52;;;19.10;99.90;;;;;;4963236;28;20450;-78
2022/08/01 04:05:50;;;;;;;29.58;20.23;;;19.10;99.90;;;;;;4984170;28;20402;-78
2022/08/01 04:08:16;;;;;;;35.03;24.45;;;19.00;99.90;;;;;;4963460;28;20025;-78
2022/08/01 04:10:41;;;;;;;20.08;16.33;;;19.10;99.90;;;;;;4997863;28;20315;-78
2022/08/01 04:13:07;;;;;;;24.27;18.98;;;19.00;99.90;;;;;;4992701;28;20022;-78
2022/08/01 04:15:32;;;;;;;32.40;25.23;;;19.00;99.90;;;;;;4978459;28;20030;-77
2022/08/01 04:17:58;;;;;;;18.38;14.88;;;19.00;99.90;;;;;;5004344;28;20034;-78
2022/08/01 04:20:24;;;;;;;20.25;15.65;;;19.00;99.90;;;;;;5020740;28;20073;-78
2022/08/01 04:22:49;;;;;;;24.45;18.58;;;19.00;99.90;;;;;;4978616;28;20135;-78
2022/08/01 04:25:21;;;;;;;36.92;27.55;;;19.10;99.90;;;;;;4981954;28;20029;-78
2022/08/01 04:27:49;;;;;;;20.63;15.85;;;19.00;99.90;;;;;;4975276;28;20049;-78
2022/08/01 04:30:15;;;;;;;21.73;14.23;;;19.10;99.90;;;;;;4990310;28;20141;-78
2022/08/01 04:32:41;;;;;;;26.40;20.58;;;19.10;99.90;;;;;;4987202;28;20072;-78
2022/08/01 04:35:07;;;;;;;17.50;14.07;;;19.10;99.90;;;;;;4981513;28;20104;-78
2022/08/01 04:37:33;;;;;;;28.08;21.33;;;19.10;99.90;;;;;;4987715;28;20048;-78
2022/08/01 04:40:03;;;;;;;38.28;23.23;;;19.10;99.90;;;;;;4995051;28;20022;-78
2022/08/01 04:42:28;;;;;;;38.67;24.98;;;19.00;99.90;;;;;;4975956;28;20091;-78
2022/08/01 04:44:54;;;;;;;26.13;19.38;;;19.00;99.90;;;;;;4984320;28;20113;-78
2022/08/01 04:47:20;;;;;;;23.58;17.38;;;19.00;99.90;;;;;;4992871;28;20030;-78
2022/08/01 04:49:45;;;;;;;25.08;17.75;;;19.10;99.90;;;;;;4971534;28;20034;-78
2022/08/01 04:52:11;;;;;;;18.33;14.73;;;19.10;99.90;;;;;;4992139;28;20410;-77
2022/08/01 04:54:36;;;;;;;20.33;16.05;;;19.10;99.90;;;;;;4994752;28;20113;-78
2022/08/01 04:57:05;;;;;;;30.85;21.83;;;19.10;99.90;;;;;;4992161;28;20394;-77
2022/08/01 04:59:41;;;;;;;31.33;23.80;;;19.20;99.90;;;;;;4998422;28;20516;-78
2022/08/01 05:02:11;;;;;;;19.70;15.15;;;19.20;99.90;;;;;;4981700;28;20033;-77
2022/08/01 05:04:36;;;;;;;31.38;23.50;;;19.20;99.90;;;;;;4998716;28;20517;-78
2022/08/01 05:07:02;;;;;;;34.63;25.13;;;19.20;99.90;;;;;;4987284;28;20039;-78
2022/08/01 05:09:28;;;;;;;38.35;26.50;;;19.10;99.90;;;;;;4969590;28;20480;-77
2022/08/01 05:11:53;;;;;;;30.30;22.58;;;19.10;99.90;;;;;;4986783;28;20034;-76
2022/08/01 05:14:19;;;;;;;35.42;24.50;;;19.10;99.90;;;;;;4967087;28;20387;-76
2022/08/01 05:16:45;;;;;;;36.97;26.45;;;19.10;99.90;;;;;;5011804;28;20129;-77
2022/08/01 05:19:11;;;;;;;40.85;27.13;;;19.10;99.90;;;;;;5001798;28;20444;-76
2022/08/01 05:21:37;;;;;;;43.38;26.40;;;19.10;99.90;;;;;;4967657;28;20042;-76
2022/08/01 05:24:06;;;;;;;53.03;26.88;;;19.10;99.90;;;;;;4974251;28;20448;-76
2022/08/01 05:26:32;;;;;;;36.35;24.05;;;19.10;99.90;;;;;;4987470;28;20523;-77
2022/08/01 05:28:58;;;;;;;28.42;19.90;;;19.00;99.90;;;;;;4995718;28;20550;-77
2022/08/01 05:31:24;;;;;;;28.40;20.70;;;18.90;99.90;;;;;;4967829;28;20042;-77
2022/08/01 05:33:49;;;;;;;24.60;19.27;;;19.00;99.90;;;;;;5001682;28;20031;-78
2022/08/01 05:36:15;;;;;;;19.95;15.77;;;19.00;99.90;;;;;;5008239;28;20390;-78
2022/08/01 05:38:40;;;;;;;28.63;21.95;;;19.00;99.90;;;;;;4986719;28;20450;-77
2022/08/01 05:41:06;;;;;;;36.75;21.50;;;19.10;99.90;;;;;;4987151;28;20033;-77
2022/08/01 05:43:32;;;;;;;30.13;21.08;;;19.10;99.90;;;;;;4986397;28;20042;-77
2022/08/01 05:45:58;;;;;;;25.73;19.60;;;19.20;99.90;;;;;;5002598;28;20030;-77
2022/08/01 05:48:24;;;;;;;29.27;18.85;;;19.20;99.90;;;;;;5003366;28;20049;-77
2022/08/01 05:50:50;;;;;;;29.15;18.67;;;19.20;99.90;;;;;;4999201;28;20038;-77
2022/08/01 05:53:15;;;;;;;26.45;18.35;;;19.20;99.90;;;;;;4983813;28;20060;-77
2022/08/01 05:55:41;;;;;;;27.75;19.60;;;19.30;99.90;;;;;;4998702;28;20474;-77
2022/08/01 05:58:07;;;;;;;27.50;17.38;;;19.40;99.90;;;;;;4985456;28;20506;-77
2022/08/01 06:00:32;;;;;;;28.10;18.55;;;19.40;99.90;;;;;;4986892;28;20038;-77
2022/08/01 06:02:58;;;;;;;20.98;16.45;;;19.50;99.90;;;;;;4988512;28;20026;-77
2022/08/01 06:05:23;;;;;;;27.95;17.17;;;19.50;99.90;;;;;;4985702;28;20034;-77
2022/08/01 06:07:49;;;;;;;24.75;16.75;;;19.60;99.90;;;;;;4983566;28;20037;-77
2022/08/01 06:10:15;;;;;;;22.20;15.50;;;19.70;99.90;;;;;;4980378;28;20089;-77
2022/08/01 06:12:40;;;;;;;20.38;15.10;;;19.80;99.90;;;;;;4996641;28;20029;-77
2022/08/01 06:15:06;;;;;;;17.85;13.85;;;19.90;99.90;;;;;;4985374;28;20032;-77
2022/08/01 06:17:32;;;;;;;13.75;11.25;;;20.00;99.90;;;;;;4967598;28;20042;-77
2022/08/01 06:19:57;;;;;;;22.23;13.35;;;20.10;99.90;;;;;;5005118;28;20034;-78
2022/08/01 06:22:23;;;;;;;18.08;13.82;;;20.10;99.90;;;;;;4999988;28;20038;-78
2022/08/01 06:24:49;;;;;;;19.90;13.93;;;20.10;99.90;;;;;;4984604;28;20084;-77
2022/08/01 06:27:14;;;;;;;18.65;12.35;;;20.20;99.90;;;;;;4983118;28;20112;-77
2022/08/01 06:29:40;;;;;;;13.07;9.82;;;20.20;99.90;;;;;;4963044;28;20038;-77
2022/08/01 06:32:06;;;;;;;10.73;8.40;;;20.30;99.90;;;;;;5005744;28;20447;-77
2022/08/01 06:34:32;;;;;;;13.30;9.75;;;20.30;99.90;;;;;;5007025;28;20042;-77
2022/08/01 06:36:57;;;;;;;17.70;11.15;;;20.30;99.90;;;;;;4969733;28;20402;-77
2022/08/01 06:39:23;;;;;;;16.77;11.10;;;20.40;99.90;;;;;;4981795;28;20039;-77
2022/08/01 06:41:48;;;;;;;14.85;10.95;;;20.50;99.90;;;;;;4998578;28;20478;-77
2022/08/01 06:44:14;;;;;;;15.27;10.38;;;20.60;99.90;;;;;;4995146;28;20038;-77
2022/08/01 06:46:40;;;;;;;11.27;8.38;;;20.70;99.90;;;;;;4998531;28;20290;-77
2022/08/01 06:49:05;;;;;;;12.82;9.85;;;20.90;99.90;;;;;;5006599;28;20087;-77
2022/08/01 06:51:31;;;;;;;13.32;9.93;;;21.00;99.90;;;;;;5003835;28;20057;-77
2022/08/01 06:53:56;;;;;;;11.35;7.93;;;21.20;99.90;;;;;;5005522;28;20489;-78
2022/08/01 06:56:22;;;;;;;13.80;10.13;;;21.30;99.90;;;;;;4980592;28;20559;-77
2022/08/01 06:58:49;;;;;;;10.75;8.40;;;21.40;99.90;;;;;;4988915;28;20022;-78
2022/08/01 07:01:15;;;;;;;11.75;9.15;;;21.50;99.90;;;;;;4989279;28;20033;-77
2022/08/01 07:03:40;;;;;;;12.27;9.18;;;21.60;99.90;;;;;;4984853;28;20041;-77
2022/08/01 07:06:06;;;;;;;13.43;9.43;;;21.70;99.90;;;;;;4969685;28;20030;-77
2022/08/01 07:08:32;;;;;;;12.10;9.00;;;21.90;99.90;;;;;;4978708;28;20038;-77
2022/08/01 07:10:59;;;;;;;14.35;10.15;;;22.20;99.90;;;;;;4980761;28;20520;-77
2022/08/01 07:13:27;;;;;;;14.82;9.80;;;22.40;99.90;;;;;;4986908;28;20467;-77
2022/08/01 07:15:53;;;;;;;8.68;6.80;;;22.60;99.90;;;;;;5008329;28;20231;-78
2022/08/01 07:18:19;;;;;;;14.68;8.23;;;22.80;99.90;;;;;;4991332;28;20468;-78
2022/08/01 07:20:47;;;;;;;9.73;7.53;;;23.00;99.90;;;;;;4982993;28;20037;-78
2022/08/01 07:23:13;;;;;;;10.95;7.50;;;23.30;99.90;;;;;;4990796;28;20155;-78
2022/08/01 07:25:38;;;;;;;10.77;6.85;;;23.40;99.90;;;;;;4964670;28;20092;-78
2022/08/01 07:28:04;;;;;;;10.52;7.40;;;23.60;99.90;;;;;;4989366;28;20185;-77
2022/08/01 07:30:30;;;;;;;8.50;6.80;;;23.70;99.90;;;;;;5006024;28;20034;-78
2022/08/01 07:32:55;;;;;;;12.43;9.13;;;23.90;99.90;;;;;;5005613;28;20025;-77
2022/08/01 07:35:21;;;;;;;9.73;7.00;;;24.30;99.90;;;;;;4979959;28;20242;-78
2022/08/01 07:37:47;;;;;;;11.57;8.00;;;24.70;99.90;;;;;;5001882;28;20034;-78
2022/08/01 07:40:12;;;;;;;9.20;7.93;;;24.90;99.90;;;;;;4977398;28;20023;-78
2022/08/01 07:42:38;;;;;;;11.70;8.05;;;25.30;99.90;;;;;;4981192;28;20053;-78
2022/08/01 07:45:04;;;;;;;9.05;7.30;;;25.50;99.90;;;;;;4973193;28;20027;-78
2022/08/01 07:47:29;;;;;;;10.50;8.23;;;25.60;99.90;;;;;;5012561;28;20031;-78
2022/08/01 07:50:01;;;;;;;10.57;8.85;;;25.80;99.90;;;;;;4995681;28;20034;-78
2022/08/01 07:52:27;;;;;;;10.88;8.60;;;26.10;99.90;;;;;;4993629;28;20374;-78
2022/08/01 07:54:53;;;;;;;8.75;7.95;;;26.20;99.90;;;;;;4993679;28;20030;-77
2022/08/01 07:57:18;;;;;;;12.88;7.60;;;26.40;99.90;;;;;;5012914;28;20086;-78
2022/08/01 07:59:44;;;;;;;7.93;7.13;;;26.70;99.90;;;;;;5013146;28;20118;-78
2022/08/01 08:02:09;;;;;;;9.98;9.00;;;26.80;99.90;;;;;;4978863;28;20180;-78
2022/08/01 08:04:35;;;;;;;7.95;7.20;;;27.00;99.90;;;;;;4977629;28;20038;-78
2022/08/01 08:07:01;;;;;;;10.60;8.35;;;27.30;99.90;;;;;;4993109;28;20116;-78
2022/08/01 08:09:26;;;;;;;10.38;8.52;;;27.40;99.90;;;;;;5016502;28;20036;-78
2022/08/01 08:11:52;;;;;;;9.10;7.30;;;27.60;99.90;;;;;;4990314;28;20116;-78
2022/08/01 08:14:17;;;;;;;7.80;6.97;;;27.80;99.90;;;;;;4983533;28;20036;-78
2022/08/01 08:16:43;;;;;;;8.68;7.72;;;27.80;99.90;;;;;;5005595;28;20037;-78
2022/08/01 08:19:09;;;;;;;6.78;6.25;;;27.90;99.90;;;;;;5003609;28;20378;-78
2022/08/01 08:21:34;;;;;;;7.13;6.50;;;28.20;99.90;;;;;;4966861;28;20045;-78
2022/08/01 08:26:45;;;;;;;7.28;5.47;;;28.70;99.90;;;;;;5007968;28;20087;-78
2022/08/01 08:29:10;;;;;;;6.50;5.68;;;29.00;99.90;;;;;;5007139;28;20034;-79
2022/08/01 08:31:36;;;;;;;6.78;5.47;;;29.20;99.90;;;;;;4991443;28;20045;-79
2022/08/01 08:34:01;;;;;;;5.95;4.60;;;29.30;99.90;;;;;;4993011;28;20026;-79
2022/08/01 08:36:27;;;;;;;7.50;5.35;;;29.30;99.90;;;;;;4993302;28;20042;-79
2022/08/01 08:38:52;;;;;;;4.93;4.45;;;29.20;99.90;;;;;;5009471;28;20053;-79
2022/08/01 08:41:18;;;;;;;5.40;5.00;;;29.20;99.90;;;;;;5012481;28;20049;-79
2022/08/01 08:43:43;;;;;;;5.80;5.15;;;29.20;99.90;;;;;;5010695;28;20033;-79
2022/08/01 08:46:09;;;;;;;5.38;4.88;;;29.10;99.90;;;;;;4992679;28;20041;-79
2022/08/01 08:48:35;;;;;;;6.85;6.00;;;29.10;99.90;;;;;;4988980;28;20411;-79
2022/08/01 08:51:01;;;;;;;7.60;6.40;;;29.10;99.90;;;;;;5009997;28;20559;-78
2022/08/01 08:53:26;;;;;;;8.40;6.40;;;29.00;99.60;;;;;;4988754;28;20057;-79
2022/08/01 08:55:52;;;;;;;7.20;6.60;;;29.00;99.70;;;;;;5009077;28;20359;-79
2022/08/01 08:58:18;;;;;;;8.18;6.15;;;29.10;99.60;;;;;;4990480;28;20041;-79
2022/08/01 09:00:43;;;;;;;6.88;6.00;;;29.20;99.40;;;;;;5016622;28;20195;-79
2022/08/01 09:03:09;;;;;;;10.30;6.85;;;29.20;99.20;;;;;;4979216;28;20113;-80
2022/08/01 09:05:34;;;;;;;8.10;6.22;;;29.50;98.90;;;;;;4992134;28;20497;-79
2022/08/01 09:08:00;;;;;;;6.43;5.45;;;29.60;98.30;;;;;;4996719;28;20113;-79
2022/08/01 09:10:25;;;;;;;7.43;4.40;;;29.50;96.50;;;;;;5007231;28;20370;-80
2022/08/01 09:13:13;;;;;;;4.20;3.80;;;29.50;97.70;;;;;;5015214;28;20088;-80
2022/08/01 09:15:46;;;;;;;4.28;3.97;;;29.60;97.00;;;;;;4991407;28;20038;-79
2022/08/01 09:18:44;;;;;;;4.57;3.90;;;29.50;96.30;;;;;;4988638;28;20125;-80
2022/08/01 09:21:14;;;;;;;3.90;3.58;;;29.40;95.60;;;;;;4990150;28;20109;-80
2022/08/01 09:23:50;;;;;;;4.70;3.83;;;29.30;94.90;;;;;;4989983;28;20474;-80
2022/08/01 09:26:17;;;;;;;5.32;4.50;;;29.30;95.90;;;;;;4992668;28;20022;-80
2022/08/01 09:28:43;;;;;;;8.27;4.50;;;29.50;96.20;;;;;;4978886;28;20042;-80
2022/08/01 09:31:13;;;;;;;4.95;4.45;;;29.60;95.50;;;;;;4964783;28;20030;-80
2022/08/01 09:33:52;;;;;;;3.80;3.40;;;29.70;95.20;;;;;;4990934;28;20029;-81
2022/08/01 09:36:18;;;;;;;4.45;3.10;;;29.80;95.60;;;;;;5005884;28;20049;-81
2022/08/01 09:38:44;;;;;;;3.75;3.45;;;30.00;94.60;;;;;;5010609;28;20057;-81
2022/08/01 09:41:11;;;;;;;3.85;3.53;;;30.10;94.20;;;;;;4975903;28;20060;-83
2022/08/01 09:43:36;;;;;;;4.05;3.58;;;30.20;93.70;;;;;;5011597;28;20040;-81
2022/08/01 09:46:12;;;;;;;3.70;3.38;;;30.50;93.10;;;;;;5010315;28;20569;-82
2022/08/01 09:48:39;;;;;;;;;;;30.40;92.50;;;;;;4991148;28;20086;-82
2022/08/01 09:51:05;;;;;;;3.08;2.88;;;30.40;92.80;;;;;;5009193;28;19944;-82
2022/08/01 09:53:42;;;;;;;3.28;3.00;;;30.50;92.70;;;;;;4996177;28;20030;-82
2022/08/01 09:56:10;;;;;;;2.90;2.60;;;30.70;92.20;;;;;;4992084;28;20081;-82
2022/08/01 09:58:59;;;;;;;4.47;3.38;;;30.70;91.20;;;;;;5013513;28;20038;-82
2022/08/01 10:01:24;;;;;;;2.90;2.70;;;30.90;91.20;;;;;;4995861;28;20452;-82
2022/08/01 10:04:10;;;;;;;2.78;2.58;;;31.00;91.20;;;;;;4974783;28;20026;-82
2022/08/01 10:06:36;;;;;;;2.95;2.75;;;31.30;90.00;;;;;;4998639;28;20034;-83
2022/08/01 10:09:02;;;;;;;3.50;3.17;;;31.40;88.20;;;;;;4998749;28;20023;-82
2022/08/01 10:11:28;;;;;;;3.38;3.05;;;31.50;90.00;;;;;;4998047;28;20417;-83
2022/08/01 10:13:53;;;;;;;4.85;3.05;;;31.60;88.50;;;;;;4987573;28;20031;-82
2022/08/01 10:16:19;;;;;;;3.53;2.97;;;31.80;87.20;;;;;;4982380;28;20402;-83
2022/08/01 10:18:44;;;;;;;3.58;2.63;;;32.00;87.60;;;;;;4993726;28;20034;-82
2022/08/01 10:21:10;;;;;;;2.53;2.22;;;32.30;84.80;;;;;;4993466;28;20087;-82
2022/08/01 10:23:36;;;;;;;2.65;2.45;;;32.40;84.20;;;;;;5015632;28;20042;-83
2022/08/01 10:26:03;;;;;;;6.68;2.60;;;32.30;83.30;;;;;;5028725;28;20557;-83
2022/08/01 10:28:30;;;;;;;3.85;2.90;;;32.30;82.40;;;;;;5025942;28;20136;-82
2022/08/01 10:30:57;;;;;;;2.80;2.60;;;32.10;82.50;;;;;;5007330;28;20041;-83
2022/08/01 10:33:22;;;;;;;2.70;2.50;;;32.00;82.30;;;;;;5000756;28;20026;-82
2022/08/01 10:35:48;;;;;;;3.63;2.25;;;31.90;81.70;;;;;;5022679;28;20500;-83
2022/08/01 10:38:14;;;;;;;1.83;1.70;;;31.80;79.40;;;;;;5014309;28;20467;-82
2022/08/01 10:40:40;;;;;;;2.00;1.80;;;31.80;79.40;;;;;;5002842;28;20038;-83
2022/08/01 10:43:05;;;;;;;3.55;1.80;;;31.80;80.50;;;;;;5006154;28;20046;-83
2022/08/01 10:45:31;;;;;;;2.53;1.92;;;31.80;81.10;;;;;;5003024;28;20030;-82
2022/08/01 10:48:19;;;;;;;2.38;2.17;;;32.10;81.90;;;;;;5013797;28;20026;-82
2022/08/01 10:50:46;;;;;;;2.13;1.92;;;32.60;79.50;;;;;;5008119;28;20373;-81
2022/08/01 10:53:17;;;;;;;3.13;1.92;;;33.00;80.40;;;;;;4992031;28;20077;-81
2022/08/01 10:55:47;;;;;;;1.92;1.40;;;33.10;76.30;;;;;;5016327;28;20103;-80
2022/08/01 10:58:12;;;;;;;1.77;1.23;;;33.50;74.30;;;;;;4984580;28;20042;-79
2022/08/01 11:00:38;;;;;;;2.78;1.10;;;33.70;73.00;;;;;;4987086;28;20034;-79
2022/08/01 11:03:04;;;;;;;1.80;1.10;;;33.40;70.70;;;;;;4990317;28;20038;-78
2022/08/01 11:05:35;;;;;;;2.42;1.10;;;33.10;71.50;;;;;;4993450;28;20132;-78
2022/08/01 11:08:03;;;;;;;1.10;1.00;;;32.90;72.40;;;;;;5013696;28;20111;-78
2022/08/01 11:10:38;;;;;;;1.50;1.40;;;32.70;73.20;;;;;;5014299;28;20064;-78
2022/08/01 11:13:07;;;;;;;3.35;1.33;;;32.50;72.10;;;;;;4993037;28;20040;-77
2022/08/01 11:15:35;;;;;;;1.50;1.30;;;32.40;73.90;;;;;;5012759;28;20038;-78
2022/08/01 11:18:27;;;;;;;1.73;0.80;;;32.40;70.80;;;;;;4978958;28;20394;-79
2022/08/01 11:20:58;;;;;;;1.17;0.90;;;32.40;74.10;;;;;;5012658;28;20461;-78
2022/08/01 11:23:24;;;;;;;1.65;1.55;;;32.80;73.80;;;;;;5013837;28;20117;-78
2022/08/01 11:25:49;;;;;;;1.23;0.88;;;33.00;72.60;;;;;;5013755;28;20051;-77
2022/08/01 11:28:22;;;;;;;1.95;0.70;;;33.50;68.50;;;;;;5010825;28;20030;-77
2022/08/01 11:31:06;;;;;;;0.90;0.90;;;33.70;68.70;;;;;;5009343;28;20083;-79
2022/08/01 11:33:41;;;;;;;1.45;1.00;;;33.50;69.70;;;;;;5008501;28;20474;-78
2022/08/01 11:36:13;;;;;;;0.60;0.60;;;33.50;70.30;;;;;;5012357;28;20396;-77
2022/08/01 11:38:48;;;;;;;0.30;0.30;;;33.40;68.50;;;;;;4999595;28;20030;-78
2022/08/01 11:41:16;;;;;;;0.40;0.40;;;33.10;68.90;;;;;;5010567;28;20034;-79
2022/08/01 11:43:59;;;;;;;2.30;0.40;;;33.30;68.90;;;;;;4978134;28;20097;-76
2022/08/01 11:47:03;;;;;;;0.50;0.50;;;33.20;67.50;;;;;;4994243;28;20030;-76
2022/08/01 11:49:37;;;;;;;0.43;0.43;;;33.20;66.70;;;;;;4990813;28;20042;-77
2022/08/01 11:52:06;;;;;;;1.63;0.50;;;33.10;67.00;;;;;;5006031;28;20061;-76
2022/08/01 11:54:36;;;;;;;0.80;0.40;;;32.90;68.10;;;;;;5012745;28;20037;-76
2022/08/01 11:57:21;;;;;;;0.63;0.60;;;32.90;67.00;;;;;;5011738;28;20072;-76
2022/08/01 11:59:49;;;;;;;;;;;32.90;66.40;;;;;;4976175;28;20333;-77
2022/08/01 12:02:24;;;;;;;0.60;0.57;;;33.10;63.80;;;;;;4995567;28;19964;-77
2022/08/01 12:04:54;;;;;;;0.70;0.70;;;33.10;65.60;;;;;;4998748;28;20030;-76
2022/08/01 12:07:20;;;;;;;0.70;0.70;;;33.30;66.60;;;;;;4987739;28;20330;-76
2022/08/01 12:09:46;;;;;;;0.80;0.60;;;33.40;66.90;;;;;;5008620;28;20025;-77
2022/08/01 12:12:16;;;;;;;1.65;0.70;;;33.50;66.60;;;;;;4984360;28;20030;-77
2022/08/01 12:14:42;;;;;;;0.50;0.50;;;33.80;67.10;;;;;;4980464;28;20109;-76
2022/08/01 12:17:08;;;;;;;0.60;0.60;;;34.40;63.00;;;;;;5011565;28;20118;-76
2022/08/01 12:19:36;;;;;;;0.68;0.68;;;34.40;62.70;;;;;;4975193;28;20035;-75
2022/08/01 12:22:12;;;;;;;0.57;0.50;;;34.20;63.30;;;;;;4988117;28;20065;-75
2022/08/01 12:24:38;;;;;;;0.65;0.50;;;34.20;62.60;;;;;;4999021;28;20038;-77
2022/08/01 12:27:04;;;;;;;1.65;0.93;;;34.00;61.40;;;;;;4984656;28;20036;-77
2022/08/01 12:29:32;;;;;;;0.82;0.82;;;33.70;61.90;;;;;;4990755;28;20041;-77
2022/08/01 12:31:57;;;;;;;1.45;0.80;;;33.50;62.30;;;;;;4993439;28;20042;-77
2022/08/01 12:34:30;;;;;;;6.70;0.93;;;33.40;62.40;;;;;;4961531;28;20034;-77
2022/08/01 12:36:59;;;;;;;0.80;0.80;;;33.40;63.20;;;;;;4990314;28;20561;-77
2022/08/01 12:39:32;;;;;;;1.27;1.05;;;33.50;62.00;;;;;;4967338;28;20448;-78
2022/08/01 12:41:58;;;;;;;1.25;1.05;;;33.80;62.70;;;;;;5007765;28;20112;-77
2022/08/01 12:44:24;;;;;;;0.63;0.63;;;34.00;60.20;;;;;;4981777;28;20568;-78